Terminal Aerodrome Forecast
Issued by NWS Missoula, MT

Home | Current Version | Previous Version | Text Only | Print | Product List | Glossary On
Versions: 1 2 3 4 5 6 7 8 9 10 11 12 13 14 15 16 17 18 19 20 21 22 23 24 25
000
FTUS45 KMSO 240533 AAA
TAFBTM
TAF AMD
KBTM 240533Z 2406/2506 26006KT 4SM -SHSN BKN025 OVC050
      TEMPO 2406/2408 1SM -SN OVC020
     FM240800 36007KT P6SM VCSH BKN050
     FM241000 34006KT 4SM -SN BR SCT020 OVC050
     FM241600 33005KT P6SM VCSH SCT025 OVC050=

USA.gov is the U.S. government's official web portal to all federal, state and local government web resources and services.